Back to Top

Language: 

My Weather Underground Personal Weather Station Historical Data with Graphs...

Delerius Weather Station Historical Data
Daily Summary for May 1, 2017 Units:  Both    English   Metric
« Previous Day
Next Day »
Daily Weekly Monthly Yearly Custom
  High: Low: Average:
Temperature: 61.2 °F /  16.2 °C 46.6 °F /  8.1 °C 52.5 °F /  11.4 °C
Dew Point: 48.8 °F /  9.3 °C 42.6 °F /  5.9 °C 45.2 °F /  7.3 °C
Humidity: 91 % 53 % 77 %
Wind Speed: 10.0 mph /  16.1 km/h - 5 mph /  8 km/h
Wind Gust: 20.0 mph /  32.2 km/h - -
Wind:- - ENE
Pressure: 30.00 in /  1015.8 hPa 29.55 in /  1000.6 hPa -
Precipitation: 0.00 in /  0 mm    
Historical Graphs
 
 
Tabular Data for May 1, 2017
Time Temperature Dew Point Pressure Wind Wind Speed Wind Gust Humidity Rainfall Rate (Hourly) solar Conditions
00:01 50.5 °F /  10.3 °C 44.3 °F /  6.8 °C 29.56 in /  1000.9 hPa ENE 2.0 mph /  3.2 km/h 7.0 mph /  11.3 km/h 79 % 0.00 in /  0 mm 0 W/m2
00:06 50.5 °F /  10.3 °C 44.3 °F /  6.8 °C 29.56 in /  1000.9 hPa NE 3.0 mph /  4.8 km/h 7.0 mph /  11.3 km/h 79 % 0.00 in /  0 mm 0 W/m2
00:11 50.5 °F /  10.3 °C 44.3 °F /  6.8 °C 29.56 in /  1000.9 hPa NE 2.0 mph /  3.2 km/h 7.0 mph /  11.3 km/h 79 % 0.00 in /  0 mm 0 W/m2
00:16 50.4 °F /  10.2 °C 44.1 °F /  6.7 °C 29.56 in /  1000.9 hPa NE 2.0 mph /  3.2 km/h 7.0 mph /  11.3 km/h 79 % 0.00 in /  0 mm 0 W/m2
00:21 50.4 °F /  10.2 °C 44.4 °F /  6.9 °C 29.57 in /  1001.2 hPa NE 1.0 mph /  1.6 km/h 7.0 mph /  11.3 km/h 80 % 0.00 in /  0 mm 0 W/m2
00:26 50.2 °F /  10.1 °C 44.2 °F /  6.8 °C 29.56 in /  1000.9 hPa ENE 1.0 mph /  1.6 km/h 6.0 mph /  9.7 km/h 80 % 0.00 in /  0 mm 0 W/m2
00:31 50.2 °F /  10.1 °C 44.2 °F /  6.8 °C 29.56 in /  1000.9 hPa NE 2.0 mph /  3.2 km/h 6.0 mph /  9.7 km/h 80 % 0.00 in /  0 mm 0 W/m2
00:36 50.2 °F /  10.1 °C 44.2 °F /  6.8 °C 29.56 in /  1000.9 hPa NE 1.0 mph /  1.6 km/h 6.0 mph /  9.7 km/h 80 % 0.00 in /  0 mm 0 W/m2
00:41 50.2 °F /  10.1 °C 44.2 °F /  6.8 °C 29.56 in /  1000.9 hPa NE 1.0 mph /  1.6 km/h 6.0 mph /  9.7 km/h 80 % 0.00 in /  0 mm 0 W/m2
00:46 50.2 °F /  10.1 °C 44.6 °F /  7 °C 29.56 in /  1000.9 hPa North 2.0 mph /  3.2 km/h 6.0 mph /  9.7 km/h 81 % 0.00 in /  0 mm 0 W/m2
00:51 50.2 °F /  10.1 °C 44.6 °F /  7 °C 29.56 in /  1000.9 hPa North 1.0 mph /  1.6 km/h 6.0 mph /  9.7 km/h 81 % 0.00 in /  0 mm 0 W/m2
00:56 50.0 °F /  10 °C 44.4 °F /  6.9 °C 29.56 in /  1000.9 hPa NNW 1.0 mph /  1.6 km/h 4.0 mph /  6.4 km/h 81 % 0.00 in /  0 mm 0 W/m2
01:01 49.8 °F /  9.9 °C 44.2 °F /  6.8 °C 29.56 in /  1000.9 hPa NNW 1.0 mph /  1.6 km/h 4.0 mph /  6.4 km/h 81 % 0.00 in /  0 mm 0 W/m2
01:06 49.8 °F /  9.9 °C 44.5 °F /  6.9 °C 29.56 in /  1000.9 hPa NNE 2.0 mph /  3.2 km/h 6.0 mph /  9.7 km/h 82 % 0.00 in /  0 mm 0 W/m2
01:11 49.6 °F /  9.8 °C 44.4 °F /  6.9 °C 29.56 in /  1000.9 hPa NNE 3.0 mph /  4.8 km/h 6.0 mph /  9.7 km/h 82 % 0.00 in /  0 mm 0 W/m2
01:16 49.6 °F /  9.8 °C 44.4 °F /  6.9 °C 29.55 in /  1000.6 hPa NNE 3.0 mph /  4.8 km/h 6.0 mph /  9.7 km/h 82 % 0.00 in /  0 mm 0 W/m2
01:21 49.6 °F /  9.8 °C 44.7 °F /  7.1 °C 29.56 in /  1000.9 hPa NNE 1.0 mph /  1.6 km/h 5.0 mph /  8 km/h 83 % 0.00 in /  0 mm 0 W/m2
01:26 49.6 °F /  9.8 °C 44.7 °F /  7.1 °C 29.55 in /  1000.6 hPa NNE 1.0 mph /  1.6 km/h 6.0 mph /  9.7 km/h 83 % 0.00 in /  0 mm 0 W/m2
01:31 49.6 °F /  9.8 °C 44.7 °F /  7.1 °C 29.55 in /  1000.6 hPa North 1.0 mph /  1.6 km/h 6.0 mph /  9.7 km/h 83 % 0.00 in /  0 mm 0 W/m2
01:36 49.6 °F /  9.8 °C 44.7 °F /  7.1 °C 29.56 in /  1000.9 hPa Calm   4.0 mph /  6.4 km/h 83 % 0.00 in /  0 mm 0 W/m2
01:41 49.6 °F /  9.8 °C 44.7 °F /  7.1 °C 29.55 in /  1000.6 hPa NNE 1.0 mph /  1.6 km/h 7.0 mph /  11.3 km/h 83 % 0.00 in /  0 mm 0 W/m2
01:46 49.6 °F /  9.8 °C 44.7 °F /  7.1 °C 29.55 in /  1000.6 hPa NNE 2.0 mph /  3.2 km/h 7.0 mph /  11.3 km/h 83 % 0.00 in /  0 mm 0 W/m2
01:51 49.6 °F /  9.8 °C 45.0 °F /  7.2 °C 29.55 in /  1000.6 hPa NNE 2.0 mph /  3.2 km/h 6.0 mph /  9.7 km/h 84 % 0.00 in /  0 mm 0 W/m2
01:56 49.6 °F /  9.8 °C 45.0 °F /  7.2 °C 29.55 in /  1000.6 hPa NE 2.0 mph /  3.2 km/h 7.0 mph /  11.3 km/h 84 % 0.00 in /  0 mm 0 W/m2
02:01 49.6 °F /  9.8 °C 45.0 °F /  7.2 °C 29.55 in /  1000.6 hPa NE 3.0 mph /  4.8 km/h 7.0 mph /  11.3 km/h 84 % 0.00 in /  0 mm 0 W/m2
02:07 49.6 °F /  9.8 °C 45.0 °F /  7.2 °C 29.56 in /  1000.9 hPa NNE 2.0 mph /  3.2 km/h 7.0 mph /  11.3 km/h 84 % 0.00 in /  0 mm 0 W/m2
02:12 49.6 °F /  9.8 °C 45.0 °F /  7.2 °C 29.55 in /  1000.6 hPa Calm   4.0 mph /  6.4 km/h 84 % 0.00 in /  0 mm 0 W/m2
02:17 49.8 °F /  9.9 °C 45.2 °F /  7.3 °C 29.55 in /  1000.6 hPa NNW 1.0 mph /  1.6 km/h 5.0 mph /  8 km/h 84 % 0.00 in /  0 mm 0 W/m2
02:22 49.8 °F /  9.9 °C 45.2 °F /  7.3 °C 29.55 in /  1000.6 hPa NW 1.0 mph /  1.6 km/h 5.0 mph /  8 km/h 84 % 0.00 in /  0 mm 0 W/m2
02:27 49.8 °F /  9.9 °C 45.2 °F /  7.3 °C 29.55 in /  1000.6 hPa Calm   2.0 mph /  3.2 km/h 84 % 0.00 in /  0 mm 0 W/m2
02:32 49.8 °F /  9.9 °C 45.2 °F /  7.3 °C 29.55 in /  1000.6 hPa Calm   1.0 mph /  1.6 km/h 84 % 0.00 in /  0 mm 0 W/m2
02:37 49.8 °F /  9.9 °C 45.5 °F /  7.5 °C 29.55 in /  1000.6 hPa Calm   3.0 mph /  4.8 km/h 85 % 0.00 in /  0 mm 0 W/m2
02:42 49.8 °F /  9.9 °C 45.5 °F /  7.5 °C 29.56 in /  1000.9 hPa North 1.0 mph /  1.6 km/h 6.0 mph /  9.7 km/h 85 % 0.00 in /  0 mm 0 W/m2
02:47 49.8 °F /  9.9 °C 45.5 °F /  7.5 °C 29.55 in /  1000.6 hPa NNE 2.0 mph /  3.2 km/h 6.0 mph /  9.7 km/h 85 % 0.00 in /  0 mm 0 W/m2
02:52 49.8 °F /  9.9 °C 45.5 °F /  7.5 °C 29.55 in /  1000.6 hPa NNE 2.0 mph /  3.2 km/h 5.0 mph /  8 km/h 85 % 0.00 in /  0 mm 0 W/m2
02:57 49.8 °F /  9.9 °C 45.5 °F /  7.5 °C 29.55 in /  1000.6 hPa NNE 3.0 mph /  4.8 km/h 8.0 mph /  12.9 km/h 85 % 0.00 in /  0 mm 0 W/m2
03:02 49.8 °F /  9.9 °C 45.5 °F /  7.5 °C 29.55 in /  1000.6 hPa NNE 3.0 mph /  4.8 km/h 8.0 mph /  12.9 km/h 85 % 0.00 in /  0 mm 0 W/m2
03:07 49.8 °F /  9.9 °C 45.5 °F /  7.5 °C 29.55 in /  1000.6 hPa North 3.0 mph /  4.8 km/h 7.0 mph /  11.3 km/h 85 % 0.00 in /  0 mm 0 W/m2
03:12 49.8 °F /  9.9 °C 45.5 °F /  7.5 °C 29.55 in /  1000.6 hPa NNE 2.0 mph /  3.2 km/h 7.0 mph /  11.3 km/h 85 % 0.00 in /  0 mm 0 W/m2
03:17 49.8 °F /  9.9 °C 45.5 °F /  7.5 °C 29.55 in /  1000.6 hPa NNE 2.0 mph /  3.2 km/h 7.0 mph /  11.3 km/h 85 % 0.00 in /  0 mm 0 W/m2
03:22 49.8 °F /  9.9 °C 45.2 °F /  7.3 °C 29.55 in /  1000.6 hPa NNE 2.0 mph /  3.2 km/h 7.0 mph /  11.3 km/h 84 % 0.00 in /  0 mm 0 W/m2
03:27 49.8 °F /  9.9 °C 45.2 °F /  7.3 °C 29.55 in /  1000.6 hPa North 2.0 mph /  3.2 km/h 7.0 mph /  11.3 km/h 84 % 0.00 in /  0 mm 0 W/m2
03:32 49.8 °F /  9.9 °C 45.2 °F /  7.3 °C 29.55 in /  1000.6 hPa North 2.0 mph /  3.2 km/h 8.0 mph /  12.9 km/h 84 % 0.00 in /  0 mm 0 W/m2
03:37 49.8 °F /  9.9 °C 45.2 °F /  7.3 °C 29.55 in /  1000.6 hPa NNW 4.0 mph /  6.4 km/h 8.0 mph /  12.9 km/h 84 % 0.00 in /  0 mm 0 W/m2
03:42 49.8 °F /  9.9 °C 45.2 °F /  7.3 °C 29.55 in /  1000.6 hPa NNW 4.0 mph /  6.4 km/h 9.0 mph /  14.5 km/h 84 % 0.00 in /  0 mm 0 W/m2
03:47 49.8 °F /  9.9 °C 45.2 °F /  7.3 °C 29.55 in /  1000.6 hPa North 4.0 mph /  6.4 km/h 9.0 mph /  14.5 km/h 84 % 0.00 in /  0 mm 0 W/m2
03:52 49.8 °F /  9.9 °C 45.2 °F /  7.3 °C 29.55 in /  1000.6 hPa North 4.0 mph /  6.4 km/h 10.0 mph /  16.1 km/h 84 % 0.00 in /  0 mm 0 W/m2
03:57 49.8 °F /  9.9 °C 45.2 °F /  7.3 °C 29.56 in /  1000.9 hPa NNE 3.0 mph /  4.8 km/h 10.0 mph /  16.1 km/h 84 % 0.00 in /  0 mm 0 W/m2
04:02 49.8 °F /  9.9 °C 45.2 °F /  7.3 °C 29.56 in /  1000.9 hPa NNE 3.0 mph /  4.8 km/h 9.0 mph /  14.5 km/h 84 % 0.00 in /  0 mm 0 W/m2
04:07 49.8 °F /  9.9 °C 45.5 °F /  7.5 °C 29.55 in /  1000.6 hPa North 4.0 mph /  6.4 km/h 9.0 mph /  14.5 km/h 85 % 0.00 in /  0 mm 0 W/m2
04:12 49.8 °F /  9.9 °C 45.5 °F /  7.5 °C 29.56 in /  1000.9 hPa North 4.0 mph /  6.4 km/h 8.0 mph /  12.9 km/h 85 % 0.00 in /  0 mm 0 W/m2
04:17 49.8 °F /  9.9 °C 45.5 °F /  7.5 °C 29.55 in /  1000.6 hPa NNE 5.0 mph /  8 km/h 9.0 mph /  14.5 km/h 85 % 0.00 in /  0 mm 0 W/m2
04:22 49.8 °F /  9.9 °C 45.5 °F /  7.5 °C 29.55 in /  1000.6 hPa North 5.0 mph /  8 km/h 11.0 mph /  17.7 km/h 85 % 0.00 in /  0 mm 0 W/m2
04:27 49.8 °F /  9.9 °C 45.5 °F /  7.5 °C 29.55 in /  1000.6 hPa North 6.0 mph /  9.7 km/h 11.0 mph /  17.7 km/h 85 % 0.00 in /  0 mm 0 W/m2
04:32 49.8 °F /  9.9 °C 45.5 °F /  7.5 °C 29.55 in /  1000.6 hPa North 5.0 mph /  8 km/h 11.0 mph /  17.7 km/h 85 % 0.00 in /  0 mm 0 W/m2
04:37 49.8 °F /  9.9 °C 45.5 °F /  7.5 °C 29.55 in /  1000.6 hPa NNE 6.0 mph /  9.7 km/h 10.0 mph /  16.1 km/h 85 % 0.00 in /  0 mm 0 W/m2
04:42 49.8 °F /  9.9 °C 45.5 °F /  7.5 °C 29.55 in /  1000.6 hPa NNE 6.0 mph /  9.7 km/h 10.0 mph /  16.1 km/h 85 % 0.00 in /  0 mm 0 W/m2
04:47 49.8 °F /  9.9 °C 45.5 °F /  7.5 °C 29.55 in /  1000.6 hPa North 6.0 mph /  9.7 km/h 11.0 mph /  17.7 km/h 85 % 0.00 in /  0 mm 0 W/m2
04:48 49.8 °F /  9.9 °C 45.5 °F /  7.5 °C 29.55 in /  1000.6 hPa North 6.0 mph /  9.7 km/h 12.0 mph /  19.3 km/h 85 % 0.00 in /  0 mm 0 W/m2
04:53 49.8 °F /  9.9 °C 45.5 °F /  7.5 °C 29.55 in /  1000.6 hPa North 7.0 mph /  11.3 km/h 12.0 mph /  19.3 km/h 85 % 0.00 in /  0 mm 0 W/m2
04:58 49.8 °F /  9.9 °C 45.5 °F /  7.5 °C 29.55 in /  1000.6 hPa NNE 6.0 mph /  9.7 km/h 11.0 mph /  17.7 km/h 85 % 0.00 in /  0 mm 0 W/m2
05:03 49.8 °F /  9.9 °C 45.5 °F /  7.5 °C 29.56 in /  1000.9 hPa NNE 6.0 mph /  9.7 km/h 10.0 mph /  16.1 km/h 85 % 0.00 in /  0 mm 0 W/m2
05:08 49.8 °F /  9.9 °C 45.5 °F /  7.5 °C 29.55 in /  1000.6 hPa NNE 6.0 mph /  9.7 km/h 10.0 mph /  16.1 km/h 85 % 0.00 in /  0 mm 0 W/m2
05:13 49.8 °F /  9.9 °C 45.5 °F /  7.5 °C 29.55 in /  1000.6 hPa NNE 6.0 mph /  9.7 km/h 12.0 mph /  19.3 km/h 85 % 0.00 in /  0 mm 0 W/m2
05:18 49.8 °F /  9.9 °C 45.2 °F /  7.3 °C 29.55 in /  1000.6 hPa NNE 6.0 mph /  9.7 km/h 12.0 mph /  19.3 km/h 84 % 0.00 in /  0 mm 0 W/m2
05:23 50.0 °F /  10 °C 45.4 °F /  7.4 °C 29.55 in /  1000.6 hPa NNE 6.0 mph /  9.7 km/h 10.0 mph /  16.1 km/h 84 % 0.00 in /  0 mm 0 W/m2
05:28 50.0 °F /  10 °C 45.4 °F /  7.4 °C 29.55 in /  1000.6 hPa NNE 6.0 mph /  9.7 km/h 11.0 mph /  17.7 km/h 84 % 0.00 in /  0 mm 0 W/m2
05:33 49.8 °F /  9.9 °C 45.2 °F /  7.3 °C 29.56 in /  1000.9 hPa NNE 7.0 mph /  11.3 km/h 14.0 mph /  22.5 km/h 84 % 0.00 in /  0 mm 0 W/m2
05:38 49.8 °F /  9.9 °C 45.2 °F /  7.3 °C 29.56 in /  1000.9 hPa NE 7.0 mph /  11.3 km/h 14.0 mph /  22.5 km/h 84 % 0.00 in /  0 mm 0 W/m2
05:43 49.8 °F /  9.9 °C 45.2 °F /  7.3 °C 29.56 in /  1000.9 hPa NE 6.0 mph /  9.7 km/h 13.0 mph /  20.9 km/h 84 % 0.00 in /  0 mm 0 W/m2
05:48 49.8 °F /  9.9 °C 45.2 °F /  7.3 °C 29.56 in /  1000.9 hPa NE 6.0 mph /  9.7 km/h 13.0 mph /  20.9 km/h 84 % 0.00 in /  0 mm 0 W/m2
05:54 49.8 °F /  9.9 °C 45.2 °F /  7.3 °C 29.57 in /  1001.2 hPa NE 7.0 mph /  11.3 km/h 12.0 mph /  19.3 km/h 84 % 0.00 in /  0 mm 0 W/m2
05:59 49.8 °F /  9.9 °C 45.2 °F /  7.3 °C 29.57 in /  1001.2 hPa NE 7.0 mph /  11.3 km/h 12.0 mph /  19.3 km/h 84 % 0.00 in /  0 mm 5 W/m2
06:04 49.6 °F /  9.8 °C 45.0 °F /  7.2 °C 29.57 in /  1001.2 hPa NE 6.0 mph /  9.7 km/h 11.0 mph /  17.7 km/h 84 % 0.00 in /  0 mm 7 W/m2
06:09 49.6 °F /  9.8 °C 45.0 °F /  7.2 °C 29.58 in /  1001.6 hPa NE 6.0 mph /  9.7 km/h 11.0 mph /  17.7 km/h 84 % 0.00 in /  0 mm 7 W/m2
06:14 49.6 °F /  9.8 °C 45.0 °F /  7.2 °C 29.58 in /  1001.6 hPa NE 6.0 mph /  9.7 km/h 11.0 mph /  17.7 km/h 84 % 0.00 in /  0 mm 9 W/m2
06:19 49.6 °F /  9.8 °C 45.0 °F /  7.2 °C 29.58 in /  1001.6 hPa NNE 6.0 mph /  9.7 km/h 10.0 mph /  16.1 km/h 84 % 0.00 in /  0 mm 9 W/m2
06:24 49.6 °F /  9.8 °C 45.0 °F /  7.2 °C 29.58 in /  1001.6 hPa NNE 5.0 mph /  8 km/h 10.0 mph /  16.1 km/h 84 % 0.00 in /  0 mm 11 W/m2
06:29 49.5 °F /  9.7 °C 44.8 °F /  7.1 °C 29.58 in /  1001.6 hPa NE 5.0 mph /  8 km/h 10.0 mph /  16.1 km/h 84 % 0.00 in /  0 mm 11 W/m2
06:34 49.5 °F /  9.7 °C 44.8 °F /  7.1 °C 29.58 in /  1001.6 hPa NNE 5.0 mph /  8 km/h 9.0 mph /  14.5 km/h 84 % 0.00 in /  0 mm 12 W/m2
06:39 49.5 °F /  9.7 °C 44.8 °F /  7.1 °C 29.58 in /  1001.6 hPa NNE 6.0 mph /  9.7 km/h 11.0 mph /  17.7 km/h 84 % 0.00 in /  0 mm 14 W/m2
06:44 49.5 °F /  9.7 °C 44.8 °F /  7.1 °C 29.59 in /  1001.9 hPa NNE 5.0 mph /  8 km/h 11.0 mph /  17.7 km/h 84 % 0.00 in /  0 mm 16 W/m2
06:49 49.3 °F /  9.6 °C 44.6 °F /  7 °C 29.59 in /  1001.9 hPa NE 5.0 mph /  8 km/h 11.0 mph /  17.7 km/h 84 % 0.00 in /  0 mm 16 W/m2
06:54 49.3 °F /  9.6 °C 44.6 °F /  7 °C 29.59 in /  1001.9 hPa NE 6.0 mph /  9.7 km/h 11.0 mph /  17.7 km/h 84 % 0.00 in /  0 mm 28 W/m2
06:59 49.3 °F /  9.6 °C 45.0 °F /  7.2 °C 29.59 in /  1001.9 hPa NE 6.0 mph /  9.7 km/h 13.0 mph /  20.9 km/h 85 % 0.00 in /  0 mm 58 W/m2
07:04 49.3 °F /  9.6 °C 45.0 °F /  7.2 °C 29.59 in /  1001.9 hPa NE 5.0 mph /  8 km/h 13.0 mph /  20.9 km/h 85 % 0.00 in /  0 mm 67 W/m2
07:09 49.3 °F /  9.6 °C 45.0 °F /  7.2 °C 29.60 in /  1002.3 hPa NE 5.0 mph /  8 km/h 11.0 mph /  17.7 km/h 85 % 0.00 in /  0 mm 77 W/m2
07:14 49.5 °F /  9.7 °C 45.1 °F /  7.3 °C 29.60 in /  1002.3 hPa NE 5.0 mph /  8 km/h 10.0 mph /  16.1 km/h 85 % 0.00 in /  0 mm 74 W/m2
07:19 49.5 °F /  9.7 °C 45.1 °F /  7.3 °C 29.60 in /  1002.3 hPa NE 6.0 mph /  9.7 km/h 13.0 mph /  20.9 km/h 85 % 0.00 in /  0 mm 74 W/m2
07:24 49.5 °F /  9.7 °C 45.1 °F /  7.3 °C 29.60 in /  1002.3 hPa NNE 6.0 mph /  9.7 km/h 13.0 mph /  20.9 km/h 85 % 0.00 in /  0 mm 74 W/m2
07:29 49.5 °F /  9.7 °C 45.1 °F /  7.3 °C 29.60 in /  1002.3 hPa NE 6.0 mph /  9.7 km/h 15.0 mph /  24.1 km/h 85 % 0.00 in /  0 mm 65 W/m2
07:34 49.6 °F /  9.8 °C 45.3 °F /  7.4 °C 29.61 in /  1002.6 hPa NE 5.0 mph /  8 km/h 15.0 mph /  24.1 km/h 85 % 0.00 in /  0 mm 58 W/m2
07:39 49.6 °F /  9.8 °C 45.3 °F /  7.4 °C 29.61 in /  1002.6 hPa NE 5.0 mph /  8 km/h 11.0 mph /  17.7 km/h 85 % 0.00 in /  0 mm 74 W/m2
07:44 49.6 °F /  9.8 °C 45.3 °F /  7.4 °C 29.61 in /  1002.6 hPa NE 5.0 mph /  8 km/h 11.0 mph /  17.7 km/h 85 % 0.00 in /  0 mm 91 W/m2
07:49 49.6 °F /  9.8 °C 45.3 °F /  7.4 °C 29.60 in /  1002.3 hPa NE 5.0 mph /  8 km/h 9.0 mph /  14.5 km/h 85 % 0.00 in /  0 mm 86 W/m2
07:54 49.6 °F /  9.8 °C 45.3 °F /  7.4 °C 29.60 in /  1002.3 hPa NE 5.0 mph /  8 km/h 10.0 mph /  16.1 km/h 85 % 0.00 in /  0 mm 88 W/m2
07:59 49.8 °F /  9.9 °C 45.5 °F /  7.5 °C 29.61 in /  1002.6 hPa NE 5.0 mph /  8 km/h 12.0 mph /  19.3 km/h 85 % 0.00 in /  0 mm 111 W/m2
08:04 49.8 °F /  9.9 °C 45.5 °F /  7.5 °C 29.61 in /  1002.6 hPa NE 5.0 mph /  8 km/h 12.0 mph /  19.3 km/h 85 % 0.00 in /  0 mm 148 W/m2
08:09 50.2 °F /  10.1 °C 45.8 °F /  7.7 °C 29.61 in /  1002.6 hPa NE 4.0 mph /  6.4 km/h 11.0 mph /  17.7 km/h 85 % 0.00 in /  0 mm 142 W/m2
08:14 50.4 °F /  10.2 °C 46.0 °F /  7.8 °C 29.61 in /  1002.6 hPa NE 4.0 mph /  6.4 km/h 9.0 mph /  14.5 km/h 85 % 0.00 in /  0 mm 151 W/m2
08:19 50.4 °F /  10.2 °C 46.0 °F /  7.8 °C 29.61 in /  1002.6 hPa NE 6.0 mph /  9.7 km/h 9.0 mph /  14.5 km/h 85 % 0.00 in /  0 mm 105 W/m2
08:24 50.5 °F /  10.3 °C 45.9 °F /  7.7 °C 29.62 in /  1002.9 hPa NE 5.0 mph /  8 km/h 9.0 mph /  14.5 km/h 84 % 0.00 in /  0 mm 100 W/m2
08:29 50.5 °F /  10.3 °C 46.2 °F /  7.9 °C 29.62 in /  1002.9 hPa NE 4.0 mph /  6.4 km/h 10.0 mph /  16.1 km/h 85 % 0.00 in /  0 mm 84 W/m2
08:34 50.5 °F /  10.3 °C 45.9 °F /  7.7 °C 29.62 in /  1002.9 hPa NE 4.0 mph /  6.4 km/h 10.0 mph /  16.1 km/h 84 % 0.00 in /  0 mm 121 W/m2
08:39 50.7 °F /  10.4 °C 46.1 °F /  7.8 °C 29.62 in /  1002.9 hPa NE 5.0 mph /  8 km/h 11.0 mph /  17.7 km/h 84 % 0.00 in /  0 mm 163 W/m2
08:44 50.9 °F /  10.5 °C 46.2 °F /  7.9 °C 29.62 in /  1002.9 hPa NE 6.0 mph /  9.7 km/h 11.0 mph /  17.7 km/h 84 % 0.00 in /  0 mm 113 W/m2
08:49 51.1 °F /  10.6 °C 46.4 °F /  8 °C 29.62 in /  1002.9 hPa NE 6.0 mph /  9.7 km/h 11.0 mph /  17.7 km/h 84 % 0.00 in /  0 mm 104 W/m2
08:54 51.1 °F /  10.6 °C 46.4 °F /  8 °C 29.63 in /  1003.3 hPa NE 6.0 mph /  9.7 km/h 10.0 mph /  16.1 km/h 84 % 0.00 in /  0 mm 132 W/m2
08:59 51.3 °F /  10.7 °C 46.6 °F /  8.1 °C 29.63 in /  1003.3 hPa NE 5.0 mph /  8 km/h 11.0 mph /  17.7 km/h 84 % 0.00 in /  0 mm 148 W/m2
09:04 51.4 °F /  10.8 °C 46.8 °F /  8.2 °C 29.63 in /  1003.3 hPa NE 5.0 mph /  8 km/h 11.0 mph /  17.7 km/h 84 % 0.00 in /  0 mm 207 W/m2
09:09 51.6 °F /  10.9 °C 46.9 °F /  8.3 °C 29.63 in /  1003.3 hPa NE 5.0 mph /  8 km/h 9.0 mph /  14.5 km/h 84 % 0.00 in /  0 mm 181 W/m2
09:14 52.0 °F /  11.1 °C 47.3 °F /  8.5 °C 29.63 in /  1003.3 hPa ENE 4.0 mph /  6.4 km/h 10.0 mph /  16.1 km/h 84 % 0.00 in /  0 mm 193 W/m2
09:19 52.3 °F /  11.3 °C 47.3 °F /  8.5 °C 29.63 in /  1003.3 hPa ENE 4.0 mph /  6.4 km/h 10.0 mph /  16.1 km/h 83 % 0.00 in /  0 mm 258 W/m2
09:24 52.5 °F /  11.4 °C 47.5 °F /  8.6 °C 29.64 in /  1003.6 hPa NE 5.0 mph /  8 km/h 10.0 mph /  16.1 km/h 83 % 0.00 in /  0 mm 200 W/m2
09:29 52.5 °F /  11.4 °C 47.2 °F /  8.4 °C 29.64 in /  1003.6 hPa ENE 5.0 mph /  8 km/h 10.0 mph /  16.1 km/h 82 % 0.00 in /  0 mm 128 W/m2
09:34 52.7 °F /  11.5 °C 47.4 °F /  8.6 °C 29.65 in /  1003.9 hPa ENE 5.0 mph /  8 km/h 9.0 mph /  14.5 km/h 82 % 0.00 in /  0 mm 120 W/m2
09:39 52.5 °F /  11.4 °C 47.2 °F /  8.4 °C 29.65 in /  1003.9 hPa ENE 4.0 mph /  6.4 km/h 11.0 mph /  17.7 km/h 82 % 0.00 in /  0 mm 97 W/m2
09:44 52.5 °F /  11.4 °C 47.2 °F /  8.4 °C 29.65 in /  1003.9 hPa ENE 4.0 mph /  6.4 km/h 11.0 mph /  17.7 km/h 82 % 0.00 in /  0 mm 65 W/m2
09:49 52.3 °F /  11.3 °C 47.0 °F /  8.3 °C 29.65 in /  1003.9 hPa ENE 4.0 mph /  6.4 km/h 11.0 mph /  17.7 km/h 82 % 0.00 in /  0 mm 49 W/m2
09:54 52.3 °F /  11.3 °C 47.0 °F /  8.3 °C 29.65 in /  1003.9 hPa East 3.0 mph /  4.8 km/h 8.0 mph /  12.9 km/h 82 % 0.00 in /  0 mm 39 W/m2
09:59 52.3 °F /  11.3 °C 47.3 °F /  8.5 °C 29.65 in /  1003.9 hPa East 3.0 mph /  4.8 km/h 9.0 mph /  14.5 km/h 83 % 0.00 in /  0 mm 56 W/m2
10:04 52.2 °F /  11.2 °C 47.2 °F /  8.4 °C 29.66 in /  1004.3 hPa ENE 4.0 mph /  6.4 km/h 9.0 mph /  14.5 km/h 83 % 0.00 in /  0 mm 58 W/m2
10:09 52.2 °F /  11.2 °C 47.5 °F /  8.6 °C 29.66 in /  1004.3 hPa East 3.0 mph /  4.8 km/h 8.0 mph /  12.9 km/h 84 % 0.00 in /  0 mm 44 W/m2
10:14 52.2 °F /  11.2 °C 47.5 °F /  8.6 °C 29.66 in /  1004.3 hPa East 3.0 mph /  4.8 km/h 8.0 mph /  12.9 km/h 84 % 0.00 in /  0 mm 47 W/m2
10:19 52.0 °F /  11.1 °C 47.6 °F /  8.7 °C 29.66 in /  1004.3 hPa East 3.0 mph /  4.8 km/h 8.0 mph /  12.9 km/h 85 % 0.00 in /  0 mm 39 W/m2
10:24 52.0 °F /  11.1 °C 47.6 °F /  8.7 °C 29.67 in /  1004.6 hPa East 3.0 mph /  4.8 km/h 8.0 mph /  12.9 km/h 85 % 0.00 in /  0 mm 54 W/m2
10:29 52.0 °F /  11.1 °C 47.6 °F /  8.7 °C 29.67 in /  1004.6 hPa East 3.0 mph /  4.8 km/h 8.0 mph /  12.9 km/h 85 % 0.00 in /  0 mm 58 W/m2
10:34 52.0 °F /  11.1 °C 47.9 °F /  8.8 °C 29.67 in /  1004.6 hPa East 3.0 mph /  4.8 km/h 6.0 mph /  9.7 km/h 86 % 0.00 in /  0 mm 54 W/m2
10:39 52.0 °F /  11.1 °C 47.9 °F /  8.8 °C 29.67 in /  1004.6 hPa East 2.0 mph /  3.2 km/h 6.0 mph /  9.7 km/h 86 % 0.00 in /  0 mm 46 W/m2
10:44 52.0 °F /  11.1 °C 47.9 °F /  8.8 °C 29.68 in /  1005 hPa East 3.0 mph /  4.8 km/h 8.0 mph /  12.9 km/h 86 % 0.00 in /  0 mm 40 W/m2
10:49 52.0 °F /  11.1 °C 47.9 °F /  8.8 °C 29.68 in /  1005 hPa East 3.0 mph /  4.8 km/h 8.0 mph /  12.9 km/h 86 % 0.00 in /  0 mm 56 W/m2
10:54 51.8 °F /  11 °C 48.1 °F /  8.9 °C 29.68 in /  1005 hPa ESE 3.0 mph /  4.8 km/h 7.0 mph /  11.3 km/h 87 % 0.00 in /  0 mm 127 W/m2
11:00 51.8 °F /  11 °C 48.1 °F /  8.9 °C 29.68 in /  1005 hPa ESE 4.0 mph /  6.4 km/h 7.0 mph /  11.3 km/h 87 % 0.00 in /  0 mm 95 W/m2
11:02 52.0 °F /  11.1 °C 48.5 °F /  9.2 °C 29.69 in /  1005.3 hPa ESE 4.0 mph /  6.4 km/h 7.0 mph /  11.3 km/h 88 % 0.00 in /  0 mm 84 W/m2
11:07 52.0 °F /  11.1 °C 48.5 °F /  9.2 °C 29.69 in /  1005.3 hPa ESE 4.0 mph /  6.4 km/h 8.0 mph /  12.9 km/h 88 % 0.00 in /  0 mm 84 W/m2
11:12 52.0 °F /  11.1 °C 48.8 °F /  9.3 °C 29.69 in /  1005.3 hPa ESE 5.0 mph /  8 km/h 9.0 mph /  14.5 km/h 89 % 0.00 in /  0 mm 105 W/m2
11:13 51.8 °F /  11 °C 48.7 °F /  9.3 °C 29.69 in /  1005.3 hPa ESE 5.0 mph /  8 km/h 10.0 mph /  16.1 km/h 89 % 0.00 in /  0 mm 109 W/m2
11:18 51.6 °F /  10.9 °C 48.5 °F /  9.2 °C 29.70 in /  1005.6 hPa ESE 6.0 mph /  9.7 km/h 10.0 mph /  16.1 km/h 89 % 0.00 in /  0 mm 93 W/m2
11:24 51.6 °F /  10.9 °C 48.5 °F /  9.2 °C 29.70 in /  1005.6 hPa ESE 6.0 mph /  9.7 km/h 10.0 mph /  16.1 km/h 89 % 0.00 in /  0 mm 113 W/m2
11:26 51.6 °F /  10.9 °C 48.5 °F /  9.2 °C 29.70 in /  1005.6 hPa ESE 6.0 mph /  9.7 km/h 10.0 mph /  16.1 km/h 89 % 0.00 in /  0 mm 116 W/m2
11:31 51.6 °F /  10.9 °C 48.5 °F /  9.2 °C 29.70 in /  1005.6 hPa ESE 5.0 mph /  8 km/h 9.0 mph /  14.5 km/h 89 % 0.00 in /  0 mm 100 W/m2
11:36 51.6 °F /  10.9 °C 48.5 °F /  9.2 °C 29.71 in /  1006 hPa ESE 5.0 mph /  8 km/h 9.0 mph /  14.5 km/h 89 % 0.00 in /  0 mm 67 W/m2
11:41 51.4 °F /  10.8 °C 48.0 °F /  8.9 °C 29.71 in /  1006 hPa ESE 5.0 mph /  8 km/h 8.0 mph /  12.9 km/h 88 % 0.00 in /  0 mm 74 W/m2
11:46 51.4 °F /  10.8 °C 48.0 °F /  8.9 °C 29.71 in /  1006 hPa ESE 6.0 mph /  9.7 km/h 10.0 mph /  16.1 km/h 88 % 0.00 in /  0 mm 62 W/m2
11:51 51.3 °F /  10.7 °C 47.2 °F /  8.4 °C 29.72 in /  1006.3 hPa SE 8.0 mph /  12.9 km/h 14.0 mph /  22.5 km/h 86 % 0.00 in /  0 mm 79 W/m2
11:56 51.3 °F /  10.7 °C 46.9 °F /  8.3 °C 29.71 in /  1006 hPa SE 8.0 mph /  12.9 km/h 14.0 mph /  22.5 km/h 85 % 0.00 in /  0 mm 237 W/m2
12:01 51.6 °F /  10.9 °C 47.3 °F /  8.5 °C 29.71 in /  1006 hPa SE 5.0 mph /  8 km/h 12.0 mph /  19.3 km/h 85 % 0.00 in /  0 mm 626 W/m2
12:06 52.3 °F /  11.3 °C 48.0 °F /  8.9 °C 29.71 in /  1006 hPa SE 2.0 mph /  3.2 km/h 6.0 mph /  9.7 km/h 85 % 0.00 in /  0 mm 587 W/m2
12:11 53.2 °F /  11.8 °C 47.6 °F /  8.7 °C 29.72 in /  1006.3 hPa SE 3.0 mph /  4.8 km/h 7.0 mph /  11.3 km/h 81 % 0.00 in /  0 mm 552 W/m2
12:16 54.0 °F /  12.2 °C 46.9 °F /  8.3 °C 29.72 in /  1006.3 hPa SE 3.0 mph /  4.8 km/h 9.0 mph /  14.5 km/h 77 % 0.00 in /  0 mm 540 W/m2
12:21 55.0 °F /  12.8 °C 47.3 °F /  8.5 °C 29.72 in /  1006.3 hPa ESE 3.0 mph /  4.8 km/h 10.0 mph /  16.1 km/h 75 % 0.00 in /  0 mm 529 W/m2
12:26 55.6 °F /  13.1 °C 47.4 °F /  8.6 °C 29.72 in /  1006.3 hPa SE 4.0 mph /  6.4 km/h 10.0 mph /  16.1 km/h 74 % 0.00 in /  0 mm 244 W/m2
12:31 55.8 °F /  13.2 °C 47.2 °F /  8.4 °C 29.72 in /  1006.3 hPa ESE 3.0 mph /  4.8 km/h 8.0 mph /  12.9 km/h 73 % 0.00 in /  0 mm 207 W/m2
12:36 55.6 °F /  13.1 °C 47.1 °F /  8.4 °C 29.72 in /  1006.3 hPa East 3.0 mph /  4.8 km/h 7.0 mph /  11.3 km/h 73 % 0.00 in /  0 mm 179 W/m2
12:41 55.4 °F /  13 °C 46.5 °F /  8.1 °C 29.73 in /  1006.7 hPa ESE 4.0 mph /  6.4 km/h 8.0 mph /  12.9 km/h 72 % 0.00 in /  0 mm 105 W/m2
12:46 55.2 °F /  12.9 °C 46.0 °F /  7.8 °C 29.73 in /  1006.7 hPa ESE 6.0 mph /  9.7 km/h 13.0 mph /  20.9 km/h 71 % 0.00 in /  0 mm 281 W/m2
12:51 55.2 °F /  12.9 °C 46.0 °F /  7.8 °C 29.73 in /  1006.7 hPa SE 7.0 mph /  11.3 km/h 13.0 mph /  20.9 km/h 71 % 0.00 in /  0 mm 399 W/m2
12:56 55.8 °F /  13.2 °C 46.5 °F /  8.1 °C 29.73 in /  1006.7 hPa SE 6.0 mph /  9.7 km/h 12.0 mph /  19.3 km/h 71 % 0.00 in /  0 mm 309 W/m2
13:01 56.5 °F /  13.6 °C 46.8 °F /  8.2 °C 29.73 in /  1006.7 hPa ESE 5.0 mph /  8 km/h 9.0 mph /  14.5 km/h 70 % 0.00 in /  0 mm 1053 W/m2
13:06 57.6 °F /  14.2 °C 46.7 °F /  8.2 °C 29.73 in /  1006.7 hPa ESE 6.0 mph /  9.7 km/h 14.0 mph /  22.5 km/h 67 % 0.00 in /  0 mm 976 W/m2
13:11 58.3 °F /  14.6 °C 45.3 °F /  7.4 °C 29.73 in /  1006.7 hPa SE 7.0 mph /  11.3 km/h 14.0 mph /  22.5 km/h 62 % 0.00 in /  0 mm 953 W/m2
13:16 58.6 °F /  14.8 °C 45.2 °F /  7.3 °C 29.73 in /  1006.7 hPa SE 7.0 mph /  11.3 km/h 14.0 mph /  22.5 km/h 61 % 0.00 in /  0 mm 262 W/m2
13:21 58.6 °F /  14.8 °C 44.8 °F /  7.1 °C 29.73 in /  1006.7 hPa ESE 7.0 mph /  11.3 km/h 14.0 mph /  22.5 km/h 60 % 0.00 in /  0 mm 274 W/m2
13:27 58.5 °F /  14.7 °C 44.6 °F /  7 °C 29.73 in /  1006.7 hPa ESE 7.0 mph /  11.3 km/h 12.0 mph /  19.3 km/h 60 % 0.00 in /  0 mm 251 W/m2
13:32 58.3 °F /  14.6 °C 45.3 °F /  7.4 °C 29.73 in /  1006.7 hPa ESE 8.0 mph /  12.9 km/h 12.0 mph /  19.3 km/h 62 % 0.00 in /  0 mm 371 W/m2
13:37 58.5 °F /  14.7 °C 45.1 °F /  7.3 °C 29.73 in /  1006.7 hPa ESE 6.0 mph /  9.7 km/h 11.0 mph /  17.7 km/h 61 % 0.00 in /  0 mm 299 W/m2
13:42 58.3 °F /  14.6 °C 45.3 °F /  7.4 °C 29.74 in /  1007 hPa ESE 6.0 mph /  9.7 km/h 10.0 mph /  16.1 km/h 62 % 0.00 in /  0 mm 276 W/m2
13:47 58.3 °F /  14.6 °C 45.3 °F /  7.4 °C 29.74 in /  1007 hPa ESE 6.0 mph /  9.7 km/h 12.0 mph /  19.3 km/h 62 % 0.00 in /  0 mm 359 W/m2
13:52 58.1 °F /  14.5 °C 45.6 °F /  7.6 °C 29.74 in /  1007 hPa ESE 6.0 mph /  9.7 km/h 12.0 mph /  19.3 km/h 63 % 0.00 in /  0 mm 489 W/m2
13:57 58.3 °F /  14.6 °C 45.3 °F /  7.4 °C 29.74 in /  1007 hPa ESE 7.0 mph /  11.3 km/h 12.0 mph /  19.3 km/h 62 % 0.00 in /  0 mm 997 W/m2
14:02 58.6 °F /  14.8 °C 45.7 °F /  7.6 °C 29.74 in /  1007 hPa ESE 8.0 mph /  12.9 km/h 13.0 mph /  20.9 km/h 62 % 0.00 in /  0 mm 986 W/m2
14:07 59.4 °F /  15.2 °C 46.3 °F /  7.9 °C 29.74 in /  1007 hPa SE 8.0 mph /  12.9 km/h 14.0 mph /  22.5 km/h 62 % 0.00 in /  0 mm 1100 W/m2
14:12 60.1 °F /  15.6 °C 46.1 °F /  7.8 °C 29.74 in /  1007 hPa ESE 7.0 mph /  11.3 km/h 14.0 mph /  22.5 km/h 60 % 0.00 in /  0 mm 654 W/m2
14:17 60.3 °F /  15.7 °C 45.9 °F /  7.7 °C 29.75 in /  1007.3 hPa East 7.0 mph /  11.3 km/h 14.0 mph /  22.5 km/h 59 % 0.00 in /  0 mm 1053 W/m2
14:22 60.3 °F /  15.7 °C 46.3 °F /  7.9 °C 29.75 in /  1007.3 hPa East 8.0 mph /  12.9 km/h 16.0 mph /  25.7 km/h 60 % 0.00 in /  0 mm 1097 W/m2
14:27 60.4 °F /  15.8 °C 46.0 °F /  7.8 °C 29.75 in /  1007.3 hPa East 7.0 mph /  11.3 km/h 16.0 mph /  25.7 km/h 59 % 0.00 in /  0 mm 232 W/m2
14:32 60.3 °F /  15.7 °C 45.9 °F /  7.7 °C 29.75 in /  1007.3 hPa ENE 6.0 mph /  9.7 km/h 13.0 mph /  20.9 km/h 59 % 0.00 in /  0 mm 287 W/m2
14:37 59.9 °F /  15.5 °C 46.0 °F /  7.8 °C 29.75 in /  1007.3 hPa East 6.0 mph /  9.7 km/h 13.0 mph /  20.9 km/h 60 % 0.00 in /  0 mm 976 W/m2
14:42 59.7 °F /  15.4 °C 45.8 °F /  7.7 °C 29.75 in /  1007.3 hPa East 7.0 mph /  11.3 km/h 13.0 mph /  20.9 km/h 60 % 0.00 in /  0 mm 373 W/m2
14:47 59.7 °F /  15.4 °C 45.8 °F /  7.7 °C 29.75 in /  1007.3 hPa East 7.0 mph /  11.3 km/h 13.0 mph /  20.9 km/h 60 % 0.00 in /  0 mm 1048 W/m2
14:52 60.3 °F /  15.7 °C 45.4 °F /  7.4 °C 29.75 in /  1007.3 hPa ESE 7.0 mph /  11.3 km/h 13.0 mph /  20.9 km/h 58 % 0.00 in /  0 mm 332 W/m2
14:57 60.3 °F /  15.7 °C 45.4 °F /  7.4 °C 29.76 in /  1007.7 hPa East 8.0 mph /  12.9 km/h 16.0 mph /  25.7 km/h 58 % 0.00 in /  0 mm 178 W/m2
15:02 59.7 °F /  15.4 °C 45.4 °F /  7.4 °C 29.75 in /  1007.3 hPa East 7.0 mph /  11.3 km/h 16.0 mph /  25.7 km/h 59 % 0.00 in /  0 mm 200 W/m2
15:07 59.5 °F /  15.3 °C 45.6 °F /  7.6 °C 29.75 in /  1007.3 hPa East 6.0 mph /  9.7 km/h 13.0 mph /  20.9 km/h 60 % 0.00 in /  0 mm 860 W/m2
15:12 60.3 °F /  15.7 °C 46.3 °F /  7.9 °C 29.76 in /  1007.7 hPa East 7.0 mph /  11.3 km/h 16.0 mph /  25.7 km/h 60 % 0.00 in /  0 mm 847 W/m2
15:17 59.9 °F /  15.5 °C 46.0 °F /  7.8 °C 29.76 in /  1007.7 hPa East 8.0 mph /  12.9 km/h 16.0 mph /  25.7 km/h 60 % 0.00 in /  0 mm 269 W/m2
15:22 59.5 °F /  15.3 °C 46.9 °F /  8.3 °C 29.76 in /  1007.7 hPa East 7.0 mph /  11.3 km/h 18.0 mph /  29 km/h 63 % 0.00 in /  0 mm 826 W/m2
15:27 59.4 °F /  15.2 °C 45.9 °F /  7.7 °C 29.76 in /  1007.7 hPa ENE 8.0 mph /  12.9 km/h 18.0 mph /  29 km/h 61 % 0.00 in /  0 mm 229 W/m2
15:32 59.5 °F /  15.3 °C 46.5 °F /  8.1 °C 29.77 in /  1008 hPa ENE 9.0 mph /  14.5 km/h 18.0 mph /  29 km/h 62 % 0.00 in /  0 mm 689 W/m2
15:37 59.5 °F /  15.3 °C 46.1 °F /  7.8 °C 29.77 in /  1008 hPa ENE 8.0 mph /  12.9 km/h 20.0 mph /  32.2 km/h 61 % 0.00 in /  0 mm 218 W/m2
15:43 59.4 °F /  15.2 °C 45.5 °F /  7.5 °C 29.77 in /  1008 hPa ENE 8.0 mph /  12.9 km/h 20.0 mph /  32.2 km/h 60 % 0.00 in /  0 mm 185 W/m2
15:48 59.5 °F /  15.3 °C 45.6 °F /  7.6 °C 29.77 in /  1008 hPa East 9.0 mph /  14.5 km/h 20.0 mph /  32.2 km/h 60 % 0.00 in /  0 mm 707 W/m2
15:53 59.7 °F /  15.4 °C 45.8 °F /  7.7 °C 29.77 in /  1008 hPa East 10.0 mph /  16.1 km/h 19.0 mph /  30.6 km/h 60 % 0.00 in /  0 mm 698 W/m2
15:58 60.4 °F /  15.8 °C 46.0 °F /  7.8 °C 29.78 in /  1008.4 hPa East 9.0 mph /  14.5 km/h 19.0 mph /  30.6 km/h 59 % 0.00 in /  0 mm 729 W/m2
16:03 60.8 °F /  16 °C 46.4 °F /  8 °C 29.78 in /  1008.4 hPa East 8.0 mph /  12.9 km/h 15.0 mph /  24.1 km/h 59 % 0.00 in /  0 mm 721 W/m2
16:08 61.0 °F /  16.1 °C 46.5 °F /  8.1 °C 29.78 in /  1008.4 hPa East 7.0 mph /  11.3 km/h 16.0 mph /  25.7 km/h 59 % 0.00 in /  0 mm 664 W/m2
16:13 61.2 °F /  16.2 °C 46.3 °F /  7.9 °C 29.78 in /  1008.4 hPa East 8.0 mph /  12.9 km/h 19.0 mph /  30.6 km/h 58 % 0.00 in /  0 mm 724 W/m2
16:18 60.6 °F /  15.9 °C 46.2 °F /  7.9 °C 29.79 in /  1008.7 hPa East 9.0 mph /  14.5 km/h 19.0 mph /  30.6 km/h 59 % 0.00 in /  0 mm 209 W/m2
16:23 60.1 °F /  15.6 °C 46.1 °F /  7.8 °C 29.79 in /  1008.7 hPa ENE 9.0 mph /  14.5 km/h 16.0 mph /  25.7 km/h 60 % 0.00 in /  0 mm 707 W/m2
16:28 60.1 °F /  15.6 °C 46.1 °F /  7.8 °C 29.79 in /  1008.7 hPa ENE 8.0 mph /  12.9 km/h 19.0 mph /  30.6 km/h 60 % 0.00 in /  0 mm 134 W/m2
16:33 59.7 °F /  15.4 °C 45.8 °F /  7.7 °C 29.79 in /  1008.7 hPa ENE 8.0 mph /  12.9 km/h 19.0 mph /  30.6 km/h 60 % 0.00 in /  0 mm 251 W/m2
16:38 59.4 °F /  15.2 °C 45.5 °F /  7.5 °C 29.80 in /  1009 hPa East 8.0 mph /  12.9 km/h 18.0 mph /  29 km/h 60 % 0.00 in /  0 mm 547 W/m2
16:43 59.4 °F /  15.2 °C 45.5 °F /  7.5 °C 29.80 in /  1009 hPa ENE 9.0 mph /  14.5 km/h 19.0 mph /  30.6 km/h 60 % 0.00 in /  0 mm 515 W/m2
16:48 59.0 °F /  15 °C 45.6 °F /  7.6 °C 29.80 in /  1009 hPa ENE 9.0 mph /  14.5 km/h 19.0 mph /  30.6 km/h 61 % 0.00 in /  0 mm 517 W/m2
16:53 59.2 °F /  15.1 °C 45.7 °F /  7.6 °C 29.80 in /  1009 hPa ENE 8.0 mph /  12.9 km/h 16.0 mph /  25.7 km/h 61 % 0.00 in /  0 mm 585 W/m2
16:58 59.7 °F /  15.4 °C 46.2 °F /  7.9 °C 29.81 in /  1009.4 hPa ENE 7.0 mph /  11.3 km/h 14.0 mph /  22.5 km/h 61 % 0.00 in /  0 mm 649 W/m2
17:03 60.1 °F /  15.6 °C 45.7 °F /  7.6 °C 29.81 in /  1009.4 hPa ENE 7.0 mph /  11.3 km/h 15.0 mph /  24.1 km/h 59 % 0.00 in /  0 mm 338 W/m2
17:08 59.5 °F /  15.3 °C 45.2 °F /  7.3 °C 29.81 in /  1009.4 hPa ENE 8.0 mph /  12.9 km/h 19.0 mph /  30.6 km/h 59 % 0.00 in /  0 mm 563 W/m2
17:13 59.7 °F /  15.4 °C 45.4 °F /  7.4 °C 29.81 in /  1009.4 hPa ENE 8.0 mph /  12.9 km/h 19.0 mph /  30.6 km/h 59 % 0.00 in /  0 mm 596 W/m2
17:18 59.5 °F /  15.3 °C 44.3 °F /  6.8 °C 29.81 in /  1009.4 hPa ENE 9.0 mph /  14.5 km/h 18.0 mph /  29 km/h 57 % 0.00 in /  0 mm 385 W/m2
17:23 59.4 °F /  15.2 °C 44.6 °F /  7 °C 29.82 in /  1009.7 hPa ENE 8.0 mph /  12.9 km/h 18.0 mph /  29 km/h 58 % 0.00 in /  0 mm 475 W/m2
17:28 59.5 °F /  15.3 °C 44.3 °F /  6.8 °C 29.82 in /  1009.7 hPa East 6.0 mph /  9.7 km/h 16.0 mph /  25.7 km/h 57 % 0.00 in /  0 mm 566 W/m2
17:33 60.1 °F /  15.6 °C 43.9 °F /  6.6 °C 29.82 in /  1009.7 hPa East 7.0 mph /  11.3 km/h 20.0 mph /  32.2 km/h 55 % 0.00 in /  0 mm 167 W/m2
17:38 59.7 °F /  15.4 °C 42.6 °F /  5.9 °C 29.82 in /  1009.7 hPa East 7.0 mph /  11.3 km/h 20.0 mph /  32.2 km/h 53 % 0.00 in /  0 mm 186 W/m2
17:43 59.5 °F /  15.3 °C 43.3 °F /  6.3 °C 29.83 in /  1010 hPa East 7.0 mph /  11.3 km/h 15.0 mph /  24.1 km/h 55 % 0.00 in /  0 mm 311 W/m2
17:48 59.2 °F /  15.1 °C 43.9 °F /  6.6 °C 29.83 in /  1010 hPa East 8.0 mph /  12.9 km/h 15.0 mph /  24.1 km/h 57 % 0.00 in /  0 mm 128 W/m2
17:53 58.5 °F /  14.7 °C 43.7 °F /  6.5 °C 29.83 in /  1010 hPa East 8.0 mph /  12.9 km/h 14.0 mph /  22.5 km/h 58 % 0.00 in /  0 mm 74 W/m2
17:58 57.7 °F /  14.3 °C 43.9 °F /  6.6 °C 29.84 in /  1010.4 hPa East 7.0 mph /  11.3 km/h 14.0 mph /  22.5 km/h 60 % 0.00 in /  0 mm 105 W/m2
18:04 57.4 °F /  14.1 °C 44.0 °F /  6.7 °C 29.84 in /  1010.4 hPa East 7.0 mph /  11.3 km/h 15.0 mph /  24.1 km/h 61 % 0.00 in /  0 mm 176 W/m2
18:09 57.2 °F /  14 °C 43.9 °F /  6.6 °C 29.84 in /  1010.4 hPa East 7.0 mph /  11.3 km/h 15.0 mph /  24.1 km/h 61 % 0.00 in /  0 mm 260 W/m2
18:14 57.2 °F /  14 °C 43.9 °F /  6.6 °C 29.84 in /  1010.4 hPa East 7.0 mph /  11.3 km/h 14.0 mph /  22.5 km/h 61 % 0.00 in /  0 mm 220 W/m2
18:19 57.2 °F /  14 °C 43.9 °F /  6.6 °C 29.84 in /  1010.4 hPa East 6.0 mph /  9.7 km/h 15.0 mph /  24.1 km/h 61 % 0.00 in /  0 mm 132 W/m2
18:24 56.8 °F /  13.8 °C 44.0 °F /  6.7 °C 29.85 in /  1010.7 hPa East 6.0 mph /  9.7 km/h 15.0 mph /  24.1 km/h 62 % 0.00 in /  0 mm 97 W/m2
18:29 56.5 °F /  13.6 °C 44.0 °F /  6.7 °C 29.85 in /  1010.7 hPa East 7.0 mph /  11.3 km/h 18.0 mph /  29 km/h 63 % 0.00 in /  0 mm 121 W/m2
18:34 56.1 °F /  13.4 °C 44.1 °F /  6.7 °C 29.85 in /  1010.7 hPa East 8.0 mph /  12.9 km/h 18.0 mph /  29 km/h 64 % 0.00 in /  0 mm 197 W/m2
18:39 55.9 °F /  13.3 °C 43.9 °F /  6.6 °C 29.86 in /  1011.1 hPa ENE 8.0 mph /  12.9 km/h 16.0 mph /  25.7 km/h 64 % 0.00 in /  0 mm 207 W/m2
18:44 55.8 °F /  13.2 °C 44.2 °F /  6.8 °C 29.86 in /  1011.1 hPa ENE 8.0 mph /  12.9 km/h 16.0 mph /  25.7 km/h 65 % 0.00 in /  0 mm 190 W/m2
18:45 55.8 °F /  13.2 °C 44.2 °F /  6.8 °C 29.86 in /  1011.1 hPa ENE 8.0 mph /  12.9 km/h 16.0 mph /  25.7 km/h 65 % 0.00 in /  0 mm 190 W/m2
18:50 55.6 °F /  13.1 °C 44.0 °F /  6.7 °C 29.86 in /  1011.1 hPa East 7.0 mph /  11.3 km/h 14.0 mph /  22.5 km/h 65 % 0.00 in /  0 mm 169 W/m2
18:55 55.6 °F /  13.1 °C 44.0 °F /  6.7 °C 29.86 in /  1011.1 hPa ENE 7.0 mph /  11.3 km/h 14.0 mph /  22.5 km/h 65 % 0.00 in /  0 mm 190 W/m2
19:00 55.4 °F /  13 °C 43.8 °F /  6.6 °C 29.87 in /  1011.4 hPa ENE 8.0 mph /  12.9 km/h 16.0 mph /  25.7 km/h 65 % 0.00 in /  0 mm 195 W/m2
19:05 55.2 °F /  12.9 °C 44.1 °F /  6.7 °C 29.87 in /  1011.4 hPa ENE 7.0 mph /  11.3 km/h 16.0 mph /  25.7 km/h 66 % 0.00 in /  0 mm 197 W/m2
19:10 55.6 °F /  13.1 °C 44.0 °F /  6.7 °C 29.87 in /  1011.4 hPa ENE 6.0 mph /  9.7 km/h 13.0 mph /  20.9 km/h 65 % 0.00 in /  0 mm 230 W/m2
19:15 55.6 °F /  13.1 °C 44.0 °F /  6.7 °C 29.87 in /  1011.4 hPa ENE 7.0 mph /  11.3 km/h 14.0 mph /  22.5 km/h 65 % 0.00 in /  0 mm 213 W/m2
19:20 55.6 °F /  13.1 °C 44.0 °F /  6.7 °C 29.87 in /  1011.4 hPa ENE 7.0 mph /  11.3 km/h 14.0 mph /  22.5 km/h 65 % 0.00 in /  0 mm 171 W/m2
19:25 55.2 °F /  12.9 °C 43.7 °F /  6.5 °C 29.87 in /  1011.4 hPa ENE 7.0 mph /  11.3 km/h 16.0 mph /  25.7 km/h 65 % 0.00 in /  0 mm 132 W/m2
19:30 55.0 °F /  12.8 °C 43.5 °F /  6.4 °C 29.88 in /  1011.7 hPa East 7.0 mph /  11.3 km/h 16.0 mph /  25.7 km/h 65 % 0.00 in /  0 mm 84 W/m2
19:31 55.0 °F /  12.8 °C 43.5 °F /  6.4 °C 29.88 in /  1011.7 hPa East 7.0 mph /  11.3 km/h 16.0 mph /  25.7 km/h 65 % 0.00 in /  0 mm 77 W/m2
19:36 54.3 °F /  12.4 °C 42.8 °F /  6 °C 29.88 in /  1011.7 hPa East 7.0 mph /  11.3 km/h 15.0 mph /  24.1 km/h 65 % 0.00 in /  0 mm 77 W/m2
19:41 54.0 °F /  12.2 °C 43.2 °F /  6.2 °C 29.88 in /  1011.7 hPa ENE 8.0 mph /  12.9 km/h 15.0 mph /  24.1 km/h 67 % 0.00 in /  0 mm 49 W/m2
19:46 53.8 °F /  12.1 °C 43.5 °F /  6.4 °C 29.89 in /  1012.1 hPa East 7.0 mph /  11.3 km/h 15.0 mph /  24.1 km/h 68 % 0.00 in /  0 mm 33 W/m2
19:51 53.4 °F /  11.9 °C 43.1 °F /  6.2 °C 29.89 in /  1012.1 hPa East 7.0 mph /  11.3 km/h 16.0 mph /  25.7 km/h 68 % 0.00 in /  0 mm 32 W/m2
19:56 53.1 °F /  11.7 °C 43.2 °F /  6.2 °C 29.89 in /  1012.1 hPa East 7.0 mph /  11.3 km/h 16.0 mph /  25.7 km/h 69 % 0.00 in /  0 mm 30 W/m2
20:01 52.5 °F /  11.4 °C 43.0 °F /  6.1 °C 29.90 in /  1012.4 hPa East 7.0 mph /  11.3 km/h 13.0 mph /  20.9 km/h 70 % 0.00 in /  0 mm 25 W/m2
20:06 52.3 °F /  11.3 °C 43.2 °F /  6.2 °C 29.90 in /  1012.4 hPa East 7.0 mph /  11.3 km/h 12.0 mph /  19.3 km/h 71 % 0.00 in /  0 mm 21 W/m2
20:11 52.0 °F /  11.1 °C 43.2 °F /  6.2 °C 29.90 in /  1012.4 hPa East 7.0 mph /  11.3 km/h 12.0 mph /  19.3 km/h 72 % 0.00 in /  0 mm 14 W/m2
20:16 51.8 °F /  11 °C 43.1 °F /  6.2 °C 29.90 in /  1012.4 hPa East 6.0 mph /  9.7 km/h 12.0 mph /  19.3 km/h 72 % 0.00 in /  0 mm 12 W/m2
20:21 51.4 °F /  10.8 °C 43.1 °F /  6.2 °C 29.91 in /  1012.8 hPa East 5.0 mph /  8 km/h 11.0 mph /  17.7 km/h 73 % 0.00 in /  0 mm 11 W/m2
20:26 51.3 °F /  10.7 °C 42.9 °F /  6.1 °C 29.91 in /  1012.8 hPa East 6.0 mph /  9.7 km/h 11.0 mph /  17.7 km/h 73 % 0.00 in /  0 mm 7 W/m2
20:28 51.3 °F /  10.7 °C 43.3 °F /  6.3 °C 29.91 in /  1012.8 hPa East 6.0 mph /  9.7 km/h 11.0 mph /  17.7 km/h 74 % 0.00 in /  0 mm 7 W/m2
20:33 51.1 °F /  10.6 °C 43.1 °F /  6.2 °C 29.91 in /  1012.8 hPa East 6.0 mph /  9.7 km/h 11.0 mph /  17.7 km/h 74 % 0.00 in /  0 mm 5 W/m2
20:38 50.9 °F /  10.5 °C 42.9 °F /  6.1 °C 29.92 in /  1013.1 hPa East 6.0 mph /  9.7 km/h 13.0 mph /  20.9 km/h 74 % 0.00 in /  0 mm 0 W/m2
20:43 50.5 °F /  10.3 °C 42.9 °F /  6.1 °C 29.92 in /  1013.1 hPa East 5.0 mph /  8 km/h 13.0 mph /  20.9 km/h 75 % 0.00 in /  0 mm 0 W/m2
20:48 50.4 °F /  10.2 °C 43.1 °F /  6.2 °C 29.92 in /  1013.1 hPa East 4.0 mph /  6.4 km/h 12.0 mph /  19.3 km/h 76 % 0.00 in /  0 mm 0 W/m2
20:53 50.2 °F /  10.1 °C 43.2 °F /  6.2 °C 29.92 in /  1013.1 hPa East 5.0 mph /  8 km/h 13.0 mph /  20.9 km/h 77 % 0.00 in /  0 mm 0 W/m2
20:58 49.8 °F /  9.9 °C 42.9 °F /  6.1 °C 29.92 in /  1013.1 hPa ENE 5.0 mph /  8 km/h 13.0 mph /  20.9 km/h 77 % 0.00 in /  0 mm 0 W/m2
21:03 49.6 °F /  9.8 °C 43.1 °F /  6.2 °C 29.93 in /  1013.4 hPa ENE 5.0 mph /  8 km/h 12.0 mph /  19.3 km/h 78 % 0.00 in /  0 mm 0 W/m2
21:08 49.5 °F /  9.7 °C 43.2 °F /  6.2 °C 29.93 in /  1013.4 hPa ENE 4.0 mph /  6.4 km/h 10.0 mph /  16.1 km/h 79 % 0.00 in /  0 mm 0 W/m2
21:13 49.3 °F /  9.6 °C 43.0 °F /  6.1 °C 29.93 in /  1013.4 hPa ENE 4.0 mph /  6.4 km/h 10.0 mph /  16.1 km/h 79 % 0.00 in /  0 mm 0 W/m2
21:18 49.1 °F /  9.5 °C 43.2 °F /  6.2 °C 29.93 in /  1013.4 hPa ENE 4.0 mph /  6.4 km/h 10.0 mph /  16.1 km/h 80 % 0.00 in /  0 mm 0 W/m2
21:23 48.9 °F /  9.4 °C 43.3 °F /  6.3 °C 29.93 in /  1013.4 hPa ENE 5.0 mph /  8 km/h 10.0 mph /  16.1 km/h 81 % 0.00 in /  0 mm 0 W/m2
21:28 48.7 °F /  9.3 °C 43.2 °F /  6.2 °C 29.94 in /  1013.8 hPa ENE 5.0 mph /  8 km/h 11.0 mph /  17.7 km/h 81 % 0.00 in /  0 mm 0 W/m2
21:33 48.6 °F /  9.2 °C 43.0 °F /  6.1 °C 29.94 in /  1013.8 hPa ENE 4.0 mph /  6.4 km/h 11.0 mph /  17.7 km/h 81 % 0.00 in /  0 mm 0 W/m2
21:38 48.4 °F /  9.1 °C 43.1 °F /  6.2 °C 29.94 in /  1013.8 hPa ENE 2.0 mph /  3.2 km/h 8.0 mph /  12.9 km/h 82 % 0.00 in /  0 mm 0 W/m2
21:43 48.2 °F /  9 °C 43.0 °F /  6.1 °C 29.95 in /  1014.1 hPa ENE 3.0 mph /  4.8 km/h 8.0 mph /  12.9 km/h 82 % 0.00 in /  0 mm 0 W/m2
21:49 48.0 °F /  8.9 °C 42.8 °F /  6 °C 29.95 in /  1014.1 hPa ENE 3.0 mph /  4.8 km/h 10.0 mph /  16.1 km/h 82 % 0.00 in /  0 mm 0 W/m2
21:54 47.8 °F /  8.8 °C 42.9 °F /  6.1 °C 29.95 in /  1014.1 hPa ENE 4.0 mph /  6.4 km/h 10.0 mph /  16.1 km/h 83 % 0.00 in /  0 mm 0 W/m2
21:59 47.7 °F /  8.7 °C 42.8 °F /  6 °C 29.95 in /  1014.1 hPa ENE 4.0 mph /  6.4 km/h 9.0 mph /  14.5 km/h 83 % 0.00 in /  0 mm 0 W/m2
22:04 47.7 °F /  8.7 °C 43.1 °F /  6.2 °C 29.95 in /  1014.1 hPa ENE 4.0 mph /  6.4 km/h 8.0 mph /  12.9 km/h 84 % 0.00 in /  0 mm 0 W/m2
22:09 47.5 °F /  8.6 °C 42.9 °F /  6.1 °C 29.96 in /  1014.4 hPa ENE 4.0 mph /  6.4 km/h 8.0 mph /  12.9 km/h 84 % 0.00 in /  0 mm 0 W/m2
22:14 47.5 °F /  8.6 °C 42.9 °F /  6.1 °C 29.96 in /  1014.4 hPa ENE 3.0 mph /  4.8 km/h 9.0 mph /  14.5 km/h 84 % 0.00 in /  0 mm 0 W/m2
22:19 47.3 °F /  8.5 °C 42.7 °F /  5.9 °C 29.96 in /  1014.4 hPa ENE 3.0 mph /  4.8 km/h 9.0 mph /  14.5 km/h 84 % 0.00 in /  0 mm 0 W/m2
22:24 47.1 °F /  8.4 °C 42.8 °F /  6 °C 29.97 in /  1014.8 hPa ENE 3.0 mph /  4.8 km/h 7.0 mph /  11.3 km/h 85 % 0.00 in /  0 mm 0 W/m2
22:29 46.9 °F /  8.3 °C 43.0 °F /  6.1 °C 29.97 in /  1014.8 hPa ENE 3.0 mph /  4.8 km/h 7.0 mph /  11.3 km/h 86 % 0.00 in /  0 mm 0 W/m2
22:34 46.9 °F /  8.3 °C 43.0 °F /  6.1 °C 29.97 in /  1014.8 hPa ENE 3.0 mph /  4.8 km/h 7.0 mph /  11.3 km/h 86 % 0.00 in /  0 mm 0 W/m2
22:39 46.8 °F /  8.2 °C 43.1 °F /  6.2 °C 29.97 in /  1014.8 hPa ENE 3.0 mph /  4.8 km/h 8.0 mph /  12.9 km/h 87 % 0.00 in /  0 mm 0 W/m2
22:44 46.8 °F /  8.2 °C 43.4 °F /  6.3 °C 29.97 in /  1014.8 hPa ENE 3.0 mph /  4.8 km/h 8.0 mph /  12.9 km/h 88 % 0.00 in /  0 mm 0 W/m2
22:49 46.6 °F /  8.1 °C 43.2 °F /  6.2 °C 29.97 in /  1014.8 hPa ENE 2.0 mph /  3.2 km/h 6.0 mph /  9.7 km/h 88 % 0.00 in /  0 mm 0 W/m2
22:54 46.6 °F /  8.1 °C 43.5 °F /  6.4 °C 29.98 in /  1015.1 hPa NE 3.0 mph /  4.8 km/h 7.0 mph /  11.3 km/h 89 % 0.00 in /  0 mm 0 W/m2
22:56 46.6 °F /  8.1 °C 43.5 °F /  6.4 °C 29.98 in /  1015.1 hPa NE 3.0 mph /  4.8 km/h 7.0 mph /  11.3 km/h 89 % 0.00 in /  0 mm 0 W/m2
23:01 46.8 °F /  8.2 °C 44.0 °F /  6.7 °C 29.98 in /  1015.1 hPa NE 2.0 mph /  3.2 km/h 7.0 mph /  11.3 km/h 90 % 0.00 in /  0 mm 0 W/m2
23:06 46.8 °F /  8.2 °C 44.0 °F /  6.7 °C 29.98 in /  1015.1 hPa NE 3.0 mph /  4.8 km/h 9.0 mph /  14.5 km/h 90 % 0.00 in /  0 mm 0 W/m2
23:11 46.9 °F /  8.3 °C 44.2 °F /  6.8 °C 29.98 in /  1015.1 hPa NE 3.0 mph /  4.8 km/h 9.0 mph /  14.5 km/h 90 % 0.00 in /  0 mm 0 W/m2
23:16 46.9 °F /  8.3 °C 44.2 °F /  6.8 °C 29.98 in /  1015.1 hPa NE 2.0 mph /  3.2 km/h 8.0 mph /  12.9 km/h 90 % 0.00 in /  0 mm 0 W/m2
23:21 46.9 °F /  8.3 °C 44.2 °F /  6.8 °C 29.98 in /  1015.1 hPa ENE 2.0 mph /  3.2 km/h 7.0 mph /  11.3 km/h 90 % 0.00 in /  0 mm 0 W/m2
23:26 46.9 °F /  8.3 °C 44.2 °F /  6.8 °C 29.99 in /  1015.5 hPa ENE 3.0 mph /  4.8 km/h 7.0 mph /  11.3 km/h 90 % 0.00 in /  0 mm 0 W/m2
23:31 46.9 °F /  8.3 °C 44.4 °F /  6.9 °C 29.99 in /  1015.5 hPa NE 3.0 mph /  4.8 km/h 7.0 mph /  11.3 km/h 91 % 0.00 in /  0 mm 0 W/m2
23:36 46.9 °F /  8.3 °C 44.4 °F /  6.9 °C 29.99 in /  1015.5 hPa ENE 3.0 mph /  4.8 km/h 7.0 mph /  11.3 km/h 91 % 0.00 in /  0 mm 0 W/m2
23:41 46.9 °F /  8.3 °C 44.4 °F /  6.9 °C 30.00 in /  1015.8 hPa NE 4.0 mph /  6.4 km/h 8.0 mph /  12.9 km/h 91 % 0.00 in /  0 mm 0 W/m2
23:46 46.9 °F /  8.3 °C 44.4 °F /  6.9 °C 30.00 in /  1015.8 hPa NE 4.0 mph /  6.4 km/h 9.0 mph /  14.5 km/h 91 % 0.00 in /  0 mm 0 W/m2
23:51 46.9 °F /  8.3 °C 44.2 °F /  6.8 °C 30.00 in /  1015.8 hPa NE 4.0 mph /  6.4 km/h 9.0 mph /  14.5 km/h 90 % 0.00 in /  0 mm 0 W/m2
23:56 46.8 °F /  8.2 °C 44.3 °F /  6.8 °C 30.00 in /  1015.8 hPa NE 4.0 mph /  6.4 km/h 9.0 mph /  14.5 km/h 91 % 0.00 in /  0 mm 0 W/m2
Delerius-Weather
Compliments of Weather Underground - 2.25 mb

Data updates at regular intervals.